createdAt,value
2019-03-22T00:02:24.781Z,80.64
2019-03-22T00:04:55.541Z,80.39
2019-03-22T00:07:26.590Z,80.25
2019-03-22T00:09:57.115Z,79.94
2019-03-22T00:12:28.273Z,79.83
2019-03-22T00:14:58.480Z,79.91
2019-03-22T00:17:29.555Z,80.41
2019-03-22T00:20:00.064Z,80.58
2019-03-22T00:22:30.275Z,80.93
2019-03-22T00:25:00.616Z,80.55
2019-03-22T00:27:31.084Z,80.74
2019-03-22T00:30:01.748Z,80.84
2019-03-22T00:32:32.100Z,80.70
2019-03-22T00:35:02.633Z,80.92
2019-03-22T00:37:33.727Z,80.66
2019-03-22T00:40:04.201Z,80.68
2019-03-22T00:42:34.396Z,81.03
2019-03-22T00:45:04.630Z,79.77
2019-03-22T00:47:35.279Z,80.88
2019-03-22T00:50:06.082Z,80.59
2019-03-22T00:52:37.038Z,80.99
2019-03-22T00:55:07.437Z,80.52
2019-03-22T00:57:37.994Z,79.56
2019-03-22T01:00:08.967Z,80.65
2019-03-22T01:02:39.729Z,80.61
2019-03-22T01:05:10.828Z,80.75
2019-03-22T01:07:41.239Z,80.06
2019-03-22T01:10:11.376Z,79.92
2019-03-22T01:12:41.675Z,80.10
2019-03-22T01:15:11.813Z,80.15
2019-03-22T01:17:43.155Z,80.19
2019-03-22T01:20:14.115Z,80.18
2019-03-22T01:22:44.717Z,80.96
2019-03-22T01:25:14.857Z,80.79
2019-03-22T01:27:46.060Z,80.95
2019-03-22T01:30:18.942Z,80.89
2019-03-22T01:32:49.999Z,80.83
2019-03-22T01:35:20.542Z,80.69
2019-03-22T01:37:51.999Z,80.79
2019-03-22T01:40:22.845Z,81.02
2019-03-22T01:42:53.143Z,80.82
2019-03-22T01:45:23.800Z,81.47
2019-03-22T01:47:54.089Z,81.74
2019-03-22T01:50:24.591Z,81.59
2019-03-22T01:52:54.666Z,81.51
2019-03-22T01:55:25.293Z,82.31
2019-03-22T01:57:58.398Z,81.82
2019-03-22T02:00:29.072Z,82.26
2019-03-22T02:03:01.119Z,82.27
2019-03-22T02:05:31.302Z,82.54
2019-03-22T02:08:01.779Z,82.63
2019-03-22T02:10:31.932Z,82.73
2019-03-22T02:13:02.362Z,82.52
2019-03-22T02:15:32.523Z,82.64
2019-03-22T02:18:03.761Z,82.17
2019-03-22T02:20:33.847Z,82.32
2019-03-22T02:23:04.091Z,82.02
2019-03-22T02:25:34.281Z,81.77
2019-03-22T02:28:05.529Z,82.35
2019-03-22T02:30:36.024Z,82.11
2019-03-22T02:33:06.178Z,82.44
2019-03-22T02:35:36.731Z,82.04
2019-03-22T02:38:08.022Z,82.45
2019-03-22T02:40:38.475Z,82.23
2019-03-22T02:43:08.845Z,82.51
2019-03-22T02:45:38.898Z,81.23
2019-03-22T02:48:09.057Z,81.89
2019-03-22T02:50:39.989Z,81.96
2019-03-22T02:53:10.193Z,81.80
2019-03-22T02:55:42.532Z,81.95
2019-03-22T02:58:20.289Z,81.69
2019-03-22T03:00:42.939Z,81.73
2019-03-22T03:03:13.409Z,82.06
2019-03-22T03:05:43.567Z,82.00
2019-03-22T03:08:13.741Z,82.00
2019-03-22T03:10:43.920Z,82.23
2019-03-22T03:13:14.198Z,82.53
2019-03-22T03:15:44.436Z,82.78
2019-03-22T03:18:14.560Z,82.37
2019-03-22T03:20:45.612Z,82.44
2019-03-22T03:23:15.768Z,82.50
2019-03-22T03:25:46.229Z,82.65
2019-03-22T03:28:16.319Z,82.36
2019-03-22T03:30:47.148Z,82.50
2019-03-22T03:33:17.347Z,82.33
2019-03-22T03:35:47.475Z,82.20
2019-03-22T03:38:17.619Z,82.45
2019-03-22T03:40:47.840Z,82.26
2019-03-22T03:43:18.121Z,82.00
2019-03-22T03:45:48.690Z,82.72
2019-03-22T03:48:19.647Z,82.77
2019-03-22T03:50:50.132Z,81.28
2019-03-22T03:53:20.447Z,82.30
2019-03-22T03:55:50.454Z,82.26
2019-03-22T03:58:20.880Z,82.42
2019-03-22T04:00:52.263Z,82.66
2019-03-22T04:03:23.428Z,83.23
2019-03-22T04:05:53.745Z,83.70
2019-03-22T04:08:23.957Z,83.32
2019-03-22T04:10:54.357Z,83.51
2019-03-22T04:13:24.478Z,83.04
2019-03-22T04:15:54.597Z,83.24
2019-03-22T04:18:24.735Z,82.61
2019-03-22T04:20:55.130Z,82.91
2019-03-22T04:23:25.339Z,82.99
2019-03-22T04:25:55.785Z,83.16
2019-03-22T04:28:26.364Z,83.01
2019-03-22T04:30:56.416Z,83.10
2019-03-22T04:33:29.469Z,83.58
2019-03-22T04:35:59.559Z,84.06
2019-03-22T04:38:29.794Z,84.47
2019-03-22T04:41:00.262Z,84.16
2019-03-22T04:43:30.377Z,84.04
2019-03-22T04:46:01.000Z,83.43
2019-03-22T04:48:32.414Z,83.73
2019-03-22T04:51:02.594Z,83.65
2019-03-22T04:53:37.310Z,83.72
2019-03-22T04:56:09.758Z,83.20
2019-03-22T04:58:40.756Z,83.39
2019-03-22T05:01:10.888Z,83.72
2019-03-22T05:03:41.023Z,83.43
2019-03-22T05:06:11.159Z,83.50
2019-03-22T05:08:41.346Z,83.57
2019-03-22T05:11:13.233Z,83.87
2019-03-22T05:13:44.689Z,83.94
2019-03-22T05:16:15.307Z,83.84
2019-03-22T05:18:47.081Z,83.89
2019-03-22T05:21:17.218Z,83.62
2019-03-22T05:23:48.508Z,83.78
2019-03-22T05:26:18.742Z,83.65
2019-03-22T05:28:49.398Z,83.91
2019-03-22T05:31:43.936Z,83.81
2019-03-22T05:34:13.961Z,84.96
2019-03-22T05:36:44.042Z,85.26
2019-03-22T05:39:14.151Z,85.22
2019-03-22T05:41:44.204Z,84.95
2019-03-22T05:44:14.659Z,84.67
2019-03-22T05:46:44.623Z,83.19
2019-03-22T05:49:14.719Z,84.28
2019-03-22T05:51:45.128Z,84.69
2019-03-22T05:54:15.406Z,84.70
2019-03-22T05:56:45.525Z,85.04
2019-03-22T05:59:15.607Z,85.08
2019-03-22T06:01:45.734Z,85.27
2019-03-22T06:04:17.008Z,84.82
2019-03-22T06:06:48.447Z,84.80
2019-03-22T06:09:18.512Z,84.91
2019-03-22T06:11:48.566Z,84.43
2019-03-22T06:14:18.678Z,84.65
2019-03-22T06:16:48.786Z,84.42
2019-03-22T06:19:18.928Z,84.18
2019-03-22T06:21:49.030Z,84.87
2019-03-22T06:24:19.124Z,84.72
2019-03-22T06:26:49.281Z,84.72
2019-03-22T06:29:19.379Z,84.15
2019-03-22T06:31:49.390Z,83.11
2019-03-22T06:34:19.543Z,83.86
2019-03-22T06:36:49.621Z,84.21
2019-03-22T06:39:20.117Z,83.98
2019-03-22T06:41:50.202Z,82.74
2019-03-22T06:44:20.412Z,83.72
2019-03-22T06:46:50.494Z,83.77
2019-03-22T06:49:20.461Z,83.47
2019-03-22T06:51:50.614Z,83.12
2019-03-22T06:54:30.991Z,82.91
2019-03-22T06:56:51.920Z,83.25
2019-03-22T06:59:22.072Z,83.35
2019-03-22T07:01:52.203Z,83.17
2019-03-22T07:04:22.396Z,83.20
2019-03-22T07:06:52.463Z,83.40
2019-03-22T07:09:22.635Z,83.07
2019-03-22T07:11:52.703Z,81.95
2019-03-22T07:14:22.807Z,83.25
2019-03-22T07:16:52.897Z,83.52
2019-03-22T07:19:23.107Z,82.54
2019-03-22T07:21:53.212Z,82.45
2019-03-22T07:24:23.536Z,82.32
2019-03-22T07:26:56.363Z,82.20
2019-03-22T07:29:24.504Z,81.99
2019-03-22T07:31:54.569Z,81.65
2019-03-22T07:34:24.631Z,81.49
2019-03-22T07:36:54.701Z,81.65
2019-03-22T07:39:25.057Z,81.10
2019-03-22T07:41:55.443Z,81.42
2019-03-22T07:44:25.587Z,82.25
2019-03-22T07:46:55.723Z,82.78
2019-03-22T07:49:27.225Z,83.31
2019-03-22T07:51:58.317Z,81.20
2019-03-22T07:54:28.407Z,82.26
2019-03-22T07:56:58.501Z,79.95
2019-03-22T07:59:28.605Z,80.22
2019-03-22T08:01:58.652Z,80.24
2019-03-22T08:04:28.755Z,80.61
2019-03-22T08:07:01.222Z,80.34
2019-03-22T08:09:29.934Z,80.20
2019-03-22T08:11:59.966Z,80.21
2019-03-22T08:14:30.080Z,80.15
2019-03-22T08:17:00.363Z,79.74
2019-03-22T08:19:30.527Z,79.48
2019-03-22T08:22:00.600Z,79.10
2019-03-22T08:24:35.849Z,79.48
2019-03-22T08:27:22.303Z,78.37
2019-03-22T08:30:04.701Z,78.36
2019-03-22T08:32:35.124Z,76.37
2019-03-22T08:35:09.024Z,77.47
2019-03-22T08:37:51.745Z,77.50
2019-03-22T08:40:10.064Z,76.75
2019-03-22T08:42:40.652Z,76.76
2019-03-22T08:45:11.503Z,76.41
2019-03-22T08:48:00.261Z,75.89
2019-03-22T08:50:30.550Z,75.45
2019-03-22T08:53:00.914Z,73.11
2019-03-22T08:55:31.202Z,70.30
2019-03-22T08:58:01.533Z,67.83
2019-03-22T09:00:39.608Z,66.57
2019-03-22T09:03:14.815Z,65.40
2019-03-22T09:05:45.937Z,66.33
2019-03-22T09:08:18.120Z,65.92
2019-03-22T09:10:52.422Z,64.04
2019-03-22T09:13:22.588Z,62.04
2019-03-22T09:15:54.163Z,61.76
2019-03-22T09:18:24.668Z,62.24
2019-03-22T09:21:04.515Z,61.38
2019-03-22T09:23:34.556Z,61.37
2019-03-22T09:26:05.733Z,60.46
2019-03-22T09:28:36.448Z,59.70
2019-03-22T09:31:10.821Z,58.30
2019-03-22T09:33:38.219Z,56.47
2019-03-22T09:36:10.167Z,53.05
2019-03-22T09:38:46.069Z,49.52
2019-03-22T09:41:21.704Z,43.16
2019-03-22T09:43:55.583Z,40.57
2019-03-22T09:46:26.063Z,39.09
2019-03-22T09:48:58.682Z,37.29
2019-03-22T09:51:29.366Z,33.03
2019-03-22T09:54:17.583Z,33.72
2019-03-22T09:56:47.957Z,34.88
2019-03-22T09:59:18.468Z,31.99
2019-03-22T10:01:48.987Z,31.62
2019-03-22T10:04:19.414Z,31.36
2019-03-22T10:06:49.848Z,29.92
2019-03-22T10:09:20.270Z,29.69
2019-03-22T10:11:50.639Z,30.24
2019-03-22T10:14:21.465Z,29.10
2019-03-22T10:16:51.517Z,29.13
2019-03-22T10:19:24.666Z,28.81
2019-03-22T10:21:54.977Z,29.65
2019-03-22T10:24:25.362Z,29.04
2019-03-22T10:26:55.881Z,30.39
2019-03-22T10:29:26.186Z,29.20
2019-03-22T10:31:56.679Z,30.39
2019-03-22T10:34:27.515Z,30.01
2019-03-22T10:36:59.409Z,29.67
2019-03-22T10:39:32.056Z,29.69
2019-03-22T10:42:05.050Z,28.34
2019-03-22T10:44:35.309Z,27.60
2019-03-22T10:47:08.904Z,28.29
2019-03-22T10:49:41.863Z,29.27
2019-03-22T10:52:12.939Z,28.18
2019-03-22T10:54:41.514Z,28.08
2019-03-22T10:57:12.103Z,28.83
2019-03-22T10:59:42.355Z,29.50
2019-03-22T11:02:12.785Z,29.18
2019-03-22T11:04:44.613Z,29.70
2019-03-22T11:07:14.968Z,28.92
2019-03-22T11:09:45.279Z,29.46
2019-03-22T11:12:15.780Z,29.79
2019-03-22T11:14:46.088Z,30.49
2019-03-22T11:17:16.558Z,28.71
2019-03-22T11:19:46.872Z,29.65
2019-03-22T11:58:17.773Z,32.34
2019-03-22T12:22:50.417Z,38.23
2019-03-22T12:25:23.247Z,37.45
2019-03-22T12:27:53.553Z,38.85
2019-03-22T12:30:23.799Z,39.03
2019-03-22T12:32:55.095Z,39.51
2019-03-22T12:35:27.853Z,38.97
2019-03-22T12:37:58.412Z,38.20
2019-03-22T12:40:28.897Z,37.81
2019-03-22T12:42:59.044Z,39.11
2019-03-22T12:45:29.416Z,38.58
2019-03-22T12:48:00.548Z,38.54
2019-03-22T12:50:30.976Z,39.17
2019-03-22T12:53:01.390Z,39.03
2019-03-22T12:55:33.337Z,38.11
2019-03-22T12:58:03.568Z,38.09
2019-03-22T13:00:33.687Z,40.12
2019-03-22T13:03:03.999Z,37.10
2019-03-22T13:05:36.451Z,37.61
2019-03-22T13:08:07.918Z,38.50
2019-03-22T13:10:38.095Z,33.65
2019-03-22T13:13:08.399Z,34.88
2019-03-22T13:15:38.543Z,33.75
2019-03-22T13:18:08.796Z,34.42
2019-03-22T13:20:39.938Z,32.74
2019-03-22T13:23:12.278Z,30.25
2019-03-22T13:25:42.326Z,31.62
2019-03-22T13:28:16.703Z,30.45
2019-03-22T13:30:47.261Z,30.97
2019-03-22T13:33:20.926Z,31.02
2019-03-22T13:35:48.586Z,30.47
2019-03-22T13:38:24.850Z,29.15
2019-03-22T13:40:55.054Z,30.52
2019-03-22T13:43:26.447Z,29.95
2019-03-22T13:45:58.919Z,30.45
2019-03-22T13:48:32.631Z,28.39
2019-03-22T13:51:03.106Z,30.34
2019-03-22T13:53:35.450Z,27.92
2019-03-22T13:56:05.760Z,29.08
2019-03-22T13:58:35.861Z,29.00
2019-03-22T14:01:06.212Z,28.54
2019-03-22T14:03:37.302Z,28.62
2019-03-22T14:06:09.855Z,27.78
2019-03-22T14:08:40.181Z,27.90
2019-03-22T14:11:10.270Z,29.04
2019-03-22T14:13:40.402Z,30.21
2019-03-22T14:16:10.633Z,29.81
2019-03-22T14:18:46.642Z,30.44
2019-03-22T14:21:16.825Z,29.02
2019-03-22T14:23:50.669Z,29.93
2019-03-22T14:26:26.326Z,29.20
2019-03-22T14:28:56.790Z,29.50
2019-03-22T14:31:29.594Z,29.68
2019-03-22T14:34:00.840Z,30.03
2019-03-22T14:36:31.409Z,28.87
2019-03-22T14:39:01.480Z,29.48
2019-03-22T14:41:31.541Z,29.12
2019-03-22T14:44:03.659Z,29.75
2019-03-22T14:46:36.283Z,29.53
2019-03-22T14:49:09.170Z,29.18
2019-03-22T14:51:47.435Z,29.78
2019-03-22T14:54:18.087Z,29.83
2019-03-22T14:56:48.264Z,28.06
2019-03-22T14:59:21.353Z,29.74
2019-03-22T15:01:51.483Z,28.93
2019-03-22T15:04:21.681Z,29.41
2019-03-22T15:06:54.720Z,29.47
2019-03-22T15:09:26.186Z,29.03
2019-03-22T15:11:56.360Z,28.91
2019-03-22T15:14:51.622Z,28.42
2019-03-22T15:17:33.504Z,28.63
2019-03-22T15:20:19.095Z,28.43
2019-03-22T15:23:20.304Z,28.06
2019-03-22T15:26:08.217Z,30.66
2019-03-22T15:29:17.854Z,28.78
2019-03-22T15:32:05.862Z,29.35
2019-03-22T15:35:04.159Z,29.35
2019-03-22T15:37:52.017Z,29.81
2019-03-22T15:40:24.453Z,29.76
2019-03-22T15:42:54.722Z,29.44
2019-03-22T15:45:30.201Z,30.75
2019-03-22T15:48:03.023Z,30.53
2019-03-22T15:50:33.358Z,32.04
2019-03-22T15:53:16.931Z,31.89
2019-03-22T15:55:47.209Z,31.08
2019-03-22T15:58:17.468Z,31.04
2019-03-22T16:00:49.545Z,30.96
2019-03-22T16:03:17.812Z,30.61
2019-03-22T16:05:48.048Z,31.24
2019-03-22T16:08:18.296Z,32.22
2019-03-22T16:10:53.699Z,32.01
2019-03-22T16:13:26.005Z,32.03
2019-03-22T16:15:57.111Z,33.18
2019-03-22T16:18:27.600Z,31.94
2019-03-22T16:21:00.475Z,32.01
2019-03-22T16:23:30.712Z,32.36
2019-03-22T16:26:00.828Z,31.92
2019-03-22T16:28:35.691Z,33.13
2019-03-22T16:31:07.735Z,33.22
2019-03-22T16:33:38.221Z,32.96
2019-03-22T16:36:11.432Z,32.99
2019-03-22T16:38:38.929Z,34.51
2019-03-22T16:41:14.347Z,33.93
2019-03-22T16:43:47.232Z,33.23
2019-03-22T16:46:17.492Z,33.63
2019-03-22T16:48:49.804Z,33.44
2019-03-22T16:51:18.260Z,33.62
2019-03-22T16:53:48.470Z,33.83
2019-03-22T16:56:18.601Z,34.02
2019-03-22T16:58:48.820Z,34.37
2019-03-22T17:01:24.928Z,34.42
2019-03-22T17:04:04.373Z,35.13
2019-03-22T17:06:32.015Z,35.37
2019-03-22T17:09:02.809Z,35.37
2019-03-22T17:11:33.398Z,36.42
2019-03-22T17:14:03.720Z,37.21
2019-03-22T17:16:33.953Z,36.87
2019-03-22T17:19:07.110Z,36.79
2019-03-22T17:21:42.125Z,37.09
2019-03-22T17:24:12.262Z,38.21
2019-03-22T17:26:42.545Z,39.50
2019-03-22T17:29:16.077Z,39.47
2019-03-22T17:31:46.655Z,39.51
2019-03-22T17:34:19.243Z,39.21
2019-03-22T17:36:52.385Z,39.43
2019-03-22T17:39:22.728Z,40.42
2019-03-22T17:41:58.137Z,41.54
2019-03-22T17:44:28.375Z,42.56
2019-03-22T17:47:01.596Z,42.74
2019-03-22T17:49:34.323Z,43.50
2019-03-22T17:52:04.691Z,42.86
2019-03-22T17:54:42.924Z,43.62
2019-03-22T17:57:18.825Z,43.95
2019-03-22T17:59:46.714Z,44.58
2019-03-22T18:02:17.077Z,44.96
2019-03-22T18:04:51.725Z,45.78
2019-03-22T18:07:27.939Z,46.29
2019-03-22T18:09:59.266Z,46.61
2019-03-22T18:12:29.758Z,46.86
2019-03-22T18:14:59.973Z,46.21
2019-03-22T18:17:30.223Z,47.08
2019-03-22T18:20:00.463Z,47.64
2019-03-22T18:22:30.650Z,47.61
2019-03-22T18:25:01.372Z,47.46
2019-03-22T18:27:31.670Z,48.62
2019-03-22T18:30:02.014Z,48.81
2019-03-22T18:32:32.094Z,49.32
2019-03-22T18:35:02.856Z,50.02
2019-03-22T18:37:35.837Z,49.99
2019-03-22T18:40:11.567Z,50.05
2019-03-22T18:42:49.405Z,50.96
2019-03-22T18:45:19.610Z,51.52
2019-03-22T18:47:49.898Z,51.23
2019-03-22T18:50:27.032Z,51.52
2019-03-22T18:52:55.306Z,51.13
2019-03-22T18:55:25.789Z,52.38
2019-03-22T18:58:01.646Z,52.67
2019-03-22T19:00:34.399Z,53.56
2019-03-22T19:03:04.756Z,53.59
2019-03-22T19:05:37.203Z,53.83
2019-03-22T19:08:05.303Z,53.83
2019-03-22T19:10:39.861Z,53.70
2019-03-22T19:13:09.443Z,53.48
2019-03-22T19:15:39.852Z,54.24
2019-03-22T19:18:10.025Z,55.25
2019-03-22T19:20:42.091Z,55.34
2019-03-22T19:23:12.220Z,55.31
2019-03-22T19:25:44.964Z,55.43
2019-03-22T19:28:15.621Z,55.83
2019-03-22T19:30:46.313Z,56.07
2019-03-22T19:33:16.519Z,56.37
2019-03-22T19:35:46.913Z,56.72
2019-03-22T19:38:16.933Z,57.17
2019-03-22T19:40:46.905Z,57.12
2019-03-22T19:43:16.876Z,56.99
2019-03-22T19:45:46.851Z,57.44
2019-03-22T19:48:16.816Z,57.54
2019-03-22T19:50:46.821Z,57.82
2019-03-22T19:53:16.788Z,57.67
2019-03-22T19:55:46.779Z,57.60
2019-03-22T19:58:16.759Z,57.33
2019-03-22T20:00:46.744Z,57.50
2019-03-22T20:03:16.704Z,58.06
2019-03-22T20:05:46.710Z,58.36
2019-03-22T20:08:16.687Z,58.70
2019-03-22T20:10:48.876Z,58.56
2019-03-22T20:13:16.691Z,58.77
2019-03-22T20:15:46.673Z,59.12
2019-03-22T20:18:16.648Z,59.82
2019-03-22T20:20:46.657Z,60.20
2019-03-22T20:23:16.642Z,60.58
2019-03-22T20:25:46.642Z,60.54
2019-03-22T20:28:16.645Z,60.64
2019-03-22T20:30:46.602Z,60.69
2019-03-22T20:33:16.559Z,60.75
2019-03-22T20:35:46.564Z,60.61
2019-03-22T20:38:16.771Z,61.07
2019-03-22T20:40:46.779Z,60.13
2019-03-22T20:43:16.795Z,59.17
2019-03-22T20:45:46.858Z,58.88
2019-03-22T20:48:16.841Z,60.04
2019-03-22T20:50:46.906Z,60.37
2019-03-22T20:53:16.889Z,59.06
2019-03-22T20:55:46.907Z,59.89
2019-03-22T20:58:16.872Z,60.25
2019-03-22T21:00:46.891Z,60.65
2019-03-22T21:03:16.885Z,61.02
2019-03-22T21:05:46.850Z,61.04
2019-03-22T21:08:16.818Z,61.74
2019-03-22T21:10:46.759Z,62.22
2019-03-22T21:13:16.734Z,62.17
2019-03-22T21:15:46.715Z,62.18
2019-03-22T21:18:16.699Z,62.62
2019-03-22T21:20:46.668Z,62.75
2019-03-22T21:23:16.619Z,63.00
2019-03-22T21:25:46.610Z,63.23
2019-03-22T21:28:16.924Z,63.64
2019-03-22T21:30:46.919Z,63.95
2019-03-22T21:33:16.881Z,64.03
2019-03-22T21:35:46.872Z,64.13
2019-03-22T21:38:16.833Z,64.12
2019-03-22T21:40:46.825Z,64.30
2019-03-22T21:43:16.787Z,64.29
2019-03-22T21:45:46.778Z,64.51
2019-03-22T21:48:16.797Z,64.78
2019-03-22T21:50:46.763Z,65.06
2019-03-22T21:53:16.733Z,65.56
2019-03-22T21:55:46.696Z,65.96
2019-03-22T21:58:16.706Z,65.86
2019-03-22T22:00:46.699Z,66.84
2019-03-22T22:03:16.598Z,66.92
2019-03-22T22:05:47.980Z,67.62
2019-03-22T22:08:16.535Z,67.82
2019-03-22T22:10:46.503Z,69.28
2019-03-22T22:13:16.484Z,69.87
2019-03-22T22:15:46.477Z,70.34
2019-03-22T22:18:16.446Z,70.76
2019-03-22T22:20:46.415Z,71.07
2019-03-22T22:23:16.470Z,71.30
2019-03-22T22:25:46.381Z,71.56
2019-03-22T22:28:16.359Z,71.15
2019-03-22T22:30:46.348Z,71.76
2019-03-22T22:33:16.303Z,71.96
2019-03-22T22:35:47.010Z,73.01
2019-03-22T22:38:16.281Z,72.75
2019-03-22T22:40:46.250Z,73.96
2019-03-22T22:43:16.231Z,73.74
2019-03-22T22:45:46.236Z,74.45
2019-03-22T22:48:16.211Z,74.01
2019-03-22T22:50:46.202Z,73.85
2019-03-22T22:53:16.244Z,73.96
2019-03-22T22:55:46.226Z,74.42
2019-03-22T22:58:16.269Z,73.92
2019-03-22T23:00:46.280Z,73.98
2019-03-22T23:03:16.276Z,74.65
2019-03-22T23:05:46.246Z,74.13
2019-03-22T23:08:16.236Z,74.52
2019-03-22T23:10:46.221Z,74.34
2019-03-22T23:13:16.187Z,74.43
2019-03-22T23:15:46.174Z,74.83
2019-03-22T23:18:16.128Z,74.82
2019-03-22T23:20:46.136Z,74.41
2019-03-22T23:23:16.124Z,74.62
2019-03-22T23:25:46.096Z,74.64
2019-03-22T23:28:16.150Z,75.11
2019-03-22T23:30:46.114Z,74.77
2019-03-22T23:33:16.109Z,74.09
2019-03-22T23:35:46.090Z,74.02
2019-03-22T23:38:16.063Z,73.47
2019-03-22T23:40:46.059Z,73.53
2019-03-22T23:43:16.020Z,73.90
2019-03-22T23:45:45.984Z,74.01
2019-03-22T23:48:15.966Z,73.84
2019-03-22T23:50:45.923Z,74.72
2019-03-22T23:53:15.921Z,74.44
2019-03-22T23:55:45.863Z,74.36
2019-03-22T23:58:15.851Z,74.52
